createdAt,value
2023-05-01T10:29:55.376Z,50.82
2023-05-01T10:30:55.257Z,53.32
2023-05-01T10:31:55.278Z,50.89
2023-05-01T10:32:55.261Z,48.57
2023-05-01T10:33:55.180Z,47.54
2023-05-01T10:34:55.521Z,49.01
2023-05-01T10:35:55.158Z,50.24
2023-05-01T10:36:55.126Z,51.54
2023-05-01T10:37:55.110Z,51.62
2023-05-01T10:38:55.117Z,51.29
2023-05-01T10:39:55.118Z,49.87
2023-05-01T10:40:55.086Z,49.16
2023-05-01T10:41:55.061Z,49.37
2023-05-01T10:42:55.052Z,49.84
2023-05-01T10:43:55.201Z,51.82
2023-05-01T10:44:55.249Z,49.29
2023-05-01T10:45:55.096Z,47.49
2023-05-01T10:46:55.207Z,48.02
2023-05-01T10:47:55.023Z,48.22
2023-05-01T10:48:55.002Z,48.60
2023-05-01T10:49:54.967Z,48.39
2023-05-01T10:50:54.949Z,47.49
2023-05-01T10:51:54.940Z,47.69
2023-05-01T10:52:54.921Z,47.52
2023-05-01T10:53:54.908Z,48.02
2023-05-01T10:54:55.087Z,47.54
2023-05-01T10:55:54.886Z,47.74
2023-05-01T10:56:54.872Z,48.44
2023-05-01T10:57:54.853Z,47.74
2023-05-01T10:58:54.848Z,47.44
2023-05-01T10:59:54.842Z,47.44
2023-05-01T11:00:54.821Z,47.04
2023-05-01T11:01:54.826Z,48.57
2023-05-01T11:02:54.797Z,48.08
2023-05-01T11:03:54.770Z,47.19
2023-05-01T11:04:54.898Z,47.16
2023-05-01T11:05:54.793Z,46.88
2023-05-01T11:06:54.806Z,47.19
2023-05-01T11:07:54.721Z,48.66
2023-05-01T11:08:54.728Z,46.06
2023-05-01T11:09:54.739Z,47.14
2023-05-01T11:10:54.696Z,45.94
2023-05-01T11:11:54.697Z,47.84
2023-05-01T11:12:54.705Z,44.93
2023-05-01T11:13:55.085Z,45.04
2023-05-01T11:14:54.874Z,45.54
2023-05-01T11:15:54.707Z,45.31
2023-05-01T11:16:54.776Z,46.62
2023-05-01T11:17:54.680Z,46.00
2023-05-01T11:18:54.588Z,45.67
2023-05-01T11:19:54.602Z,45.35
2023-05-01T11:20:54.565Z,46.05
2023-05-01T11:21:54.541Z,47.55
2023-05-01T11:22:54.533Z,45.55
2023-05-01T11:23:54.520Z,44.47
2023-05-01T11:24:55.043Z,45.59
2023-05-01T11:25:54.500Z,44.01
2023-05-01T11:26:54.498Z,46.72
2023-05-01T11:27:54.486Z,45.72
2023-05-01T11:28:54.478Z,46.00
2023-05-01T11:29:54.466Z,45.17
2023-05-01T11:30:54.454Z,45.87
2023-05-01T11:31:54.485Z,46.95
2023-05-01T11:32:54.430Z,47.05
2023-05-01T11:33:54.402Z,46.65
2023-05-01T11:34:54.737Z,46.50
2023-05-01T11:35:54.370Z,46.59
2023-05-01T11:36:54.364Z,45.67
2023-05-01T11:37:54.349Z,42.55
2023-05-01T11:38:54.345Z,42.35
2023-05-01T11:39:54.348Z,43.15
2023-05-01T11:40:54.362Z,44.13
2023-05-01T11:41:54.366Z,43.13
2023-05-01T11:42:54.279Z,45.51
2023-05-01T11:43:54.270Z,43.61
2023-05-01T11:44:54.483Z,46.08
2023-05-01T11:45:54.433Z,45.24
2023-05-01T11:46:54.241Z,44.82
2023-05-01T11:47:54.391Z,44.24
2023-05-01T11:48:54.200Z,42.97
2023-05-01T11:49:54.201Z,44.79
2023-05-01T11:50:54.190Z,44.31
2023-05-01T11:51:54.158Z,44.49
2023-05-01T11:52:54.149Z,45.12
2023-05-01T11:53:54.132Z,45.12
2023-05-01T11:54:54.137Z,45.54
2023-05-01T11:55:54.114Z,45.26
2023-05-01T11:56:54.096Z,45.26
2023-05-01T11:57:54.095Z,44.64
2023-05-01T11:58:54.121Z,45.24
2023-05-01T11:59:54.078Z,45.24
2023-05-01T12:00:54.050Z,46.56
2023-05-01T12:01:54.111Z,46.46
2023-05-01T12:02:54.138Z,46.96
2023-05-01T12:03:54.121Z,47.84
2023-05-01T12:04:54.146Z,48.02
2023-05-01T12:05:53.994Z,47.47
2023-05-01T12:06:54.043Z,45.69
2023-05-01T12:07:53.954Z,46.09
2023-05-01T12:08:53.954Z,45.81
2023-05-01T12:09:53.930Z,45.81
2023-05-01T12:10:53.944Z,45.50
2023-05-01T12:11:53.911Z,46.27
2023-05-01T12:12:53.892Z,45.20
2023-05-01T12:13:53.880Z,46.22
2023-05-01T12:14:53.875Z,46.31
2023-05-01T12:15:53.886Z,47.52
2023-05-01T12:16:53.933Z,46.64
2023-05-01T12:17:53.855Z,47.44
2023-05-01T12:18:53.811Z,45.96
2023-05-01T12:19:53.808Z,48.36
2023-05-01T12:20:53.799Z,48.26
2023-05-01T12:21:53.779Z,48.66
2023-05-01T12:22:53.763Z,47.26
2023-05-01T12:23:53.752Z,45.51
2023-05-01T12:24:53.753Z,44.79
2023-05-01T12:25:53.735Z,45.69
2023-05-01T12:26:53.714Z,45.64
2023-05-01T12:27:53.702Z,47.02
2023-05-01T12:28:53.684Z,46.19
2023-05-01T12:29:53.672Z,46.47
2023-05-01T12:30:53.667Z,43.73
2023-05-01T12:31:53.696Z,43.83
2023-05-01T12:32:53.676Z,45.83
2023-05-01T12:33:53.625Z,43.83
2023-05-01T12:34:53.625Z,42.91
2023-05-01T12:35:53.612Z,42.91
2023-05-01T12:36:53.577Z,43.81
2023-05-01T12:37:53.582Z,44.23
2023-05-01T12:38:53.548Z,44.55
2023-05-01T12:39:53.541Z,44.07
2023-05-01T12:40:53.538Z,43.90
2023-05-01T12:41:53.530Z,45.39
2023-05-01T12:42:53.492Z,45.51
2023-05-01T12:43:53.485Z,46.64
2023-05-01T12:44:53.491Z,45.34
2023-05-01T12:45:53.666Z,46.26
2023-05-01T12:46:53.635Z,46.68
2023-05-01T12:47:53.456Z,47.08
2023-05-01T12:48:54.517Z,47.71
2023-05-01T12:49:53.424Z,48.13
2023-05-01T12:50:53.551Z,48.33
2023-05-01T12:51:53.387Z,50.94
2023-05-01T12:52:53.373Z,49.36
2023-05-01T12:53:53.358Z,52.17
2023-05-01T12:54:53.339Z,51.46
2023-05-01T12:55:53.333Z,51.56
2023-05-01T12:56:53.365Z,49.76
2023-05-01T12:57:53.311Z,50.86
2023-05-01T12:58:53.299Z,50.46
2023-05-01T12:59:53.281Z,50.26
2023-05-01T13:00:53.293Z,50.26
2023-05-01T13:01:53.294Z,49.76
2023-05-01T13:02:53.245Z,48.96
2023-05-01T13:03:53.276Z,48.86
2023-05-01T13:04:53.219Z,48.96
2023-05-01T13:05:53.218Z,48.83
2023-05-01T13:06:53.294Z,50.04
2023-05-01T13:07:53.180Z,48.66
2023-05-01T13:08:53.162Z,48.96
2023-05-01T13:09:53.201Z,48.25
2023-05-01T13:10:54.706Z,48.86
2023-05-01T13:11:53.132Z,49.46
2023-05-01T13:12:53.112Z,49.66
2023-05-01T13:13:53.099Z,50.26
2023-05-01T13:14:53.092Z,50.56
2023-05-01T13:15:53.166Z,49.16
2023-05-01T13:16:53.370Z,48.96
2023-05-01T13:17:53.153Z,48.96
2023-05-01T13:18:53.080Z,49.18
2023-05-01T13:19:53.102Z,50.18
2023-05-01T13:20:53.004Z,51.09
2023-05-01T13:21:53.016Z,50.81
2023-05-01T13:22:52.979Z,49.71
2023-05-01T13:23:52.984Z,50.81
2023-05-01T13:24:52.964Z,50.51
2023-05-01T13:25:52.945Z,51.11
2023-05-01T13:26:52.941Z,50.41
2023-05-01T13:27:52.926Z,49.91
2023-05-01T13:28:52.903Z,50.21
2023-05-01T13:29:52.934Z,51.61
2023-05-01T13:30:52.883Z,50.61
2023-05-01T13:31:52.925Z,50.61
2023-05-01T13:32:52.882Z,50.11
2023-05-01T13:33:52.840Z,50.81
2023-05-01T13:34:52.843Z,50.91
2023-05-01T13:35:52.811Z,50.81
2023-05-01T13:36:52.820Z,51.01
2023-05-01T13:37:52.800Z,49.91
2023-05-01T13:38:52.774Z,49.38
2023-05-01T13:39:52.758Z,49.68
2023-05-01T13:40:52.761Z,49.68
2023-05-01T13:41:52.750Z,49.38
2023-05-01T13:42:52.788Z,50.71
2023-05-01T13:43:52.740Z,50.71
2023-05-01T13:44:52.703Z,50.01
2023-05-01T13:45:52.748Z,50.11
2023-05-01T13:46:52.683Z,50.21
2023-05-01T13:47:52.752Z,51.01
2023-05-01T13:48:52.652Z,50.51
2023-05-01T13:49:52.635Z,50.51
2023-05-01T13:50:52.654Z,52.12
2023-05-01T13:51:52.693Z,51.11
2023-05-01T13:52:52.607Z,51.31
2023-05-01T13:53:52.581Z,51.21
2023-05-01T13:54:52.570Z,51.42
2023-05-01T13:55:52.578Z,51.72
2023-05-01T13:56:52.544Z,51.01
2023-05-01T13:57:52.528Z,51.59
2023-05-01T13:58:52.517Z,50.81
2023-05-01T13:59:52.515Z,50.71
2023-05-01T14:00:52.703Z,50.41
2023-05-01T14:01:52.524Z,51.81
2023-05-01T14:02:52.569Z,51.42
2023-05-01T14:03:52.558Z,51.31
2023-05-01T14:04:52.439Z,50.81
2023-05-01T14:05:52.427Z,51.29
2023-05-01T14:06:52.619Z,51.89
2023-05-01T14:07:52.408Z,51.19
2023-05-01T14:08:52.403Z,51.19
2023-05-01T14:09:52.374Z,50.38
2023-05-01T14:10:52.368Z,50.18
2023-05-01T14:11:52.366Z,50.59
2023-05-01T14:12:52.365Z,50.68
2023-05-01T14:13:52.323Z,50.99
2023-05-01T14:14:52.321Z,52.57
2023-05-01T14:15:52.299Z,52.97
2023-05-01T14:16:52.347Z,51.76
2023-05-01T14:17:52.327Z,50.59
2023-05-01T14:18:52.267Z,50.48
2023-05-01T14:19:52.251Z,49.98
2023-05-01T14:20:52.240Z,50.38
2023-05-01T14:21:52.230Z,49.98
2023-05-01T14:22:52.222Z,49.26
2023-05-01T14:23:52.209Z,49.66
2023-05-01T14:24:52.194Z,50.16
2023-05-01T14:25:52.179Z,50.26
2023-05-01T14:26:52.167Z,50.09
2023-05-01T14:27:52.152Z,50.48
2023-05-01T14:28:52.161Z,50.09
2023-05-01T14:29:52.122Z,50.09
2023-05-01T14:30:52.158Z,49.88
2023-05-01T14:31:52.107Z,50.38
2023-05-01T14:32:52.124Z,49.86
2023-05-01T14:33:52.080Z,50.89
2023-05-01T14:34:52.075Z,50.29
2023-05-01T14:35:52.064Z,49.66
2023-05-01T14:36:52.062Z,49.63
2023-05-01T14:37:52.023Z,51.14
2023-05-01T14:38:52.009Z,49.91
2023-05-01T14:39:51.994Z,49.76
2023-05-01T14:40:51.986Z,48.04
2023-05-01T14:41:51.981Z,47.61
2023-05-01T14:42:51.960Z,45.65
2023-05-01T14:43:51.945Z,45.23
2023-05-01T14:44:51.944Z,44.27
2023-05-01T14:45:51.976Z,43.67
2023-05-01T14:46:52.189Z,43.17
2023-05-01T14:47:51.946Z,43.53
2023-05-01T14:48:51.889Z,46.73
2023-05-01T14:49:51.885Z,44.73
2023-05-01T14:50:51.871Z,45.45
2023-05-01T14:51:51.860Z,45.17
2023-05-01T14:52:51.835Z,45.00
2023-05-01T14:53:51.819Z,45.00
2023-05-01T14:54:51.920Z,45.20
2023-05-01T14:55:51.799Z,46.19
2023-05-01T14:56:51.808Z,47.31
2023-05-01T14:57:51.774Z,46.81
2023-05-01T14:58:51.763Z,46.22
2023-05-01T14:59:51.749Z,46.75
2023-05-01T15:00:51.732Z,46.46
2023-05-01T15:01:51.805Z,42.71
2023-05-01T15:02:51.857Z,42.67
2023-05-01T15:03:51.818Z,42.19
2023-05-01T15:04:51.686Z,42.63
2023-05-01T15:05:58.776Z,44.49
2023-05-01T15:06:51.790Z,45.90
2023-05-01T15:07:51.660Z,46.33
2023-05-01T15:08:52.567Z,46.13
2023-05-01T15:09:51.629Z,46.45
2023-05-01T15:10:51.624Z,45.95
2023-05-01T15:11:51.611Z,45.55
2023-05-01T15:12:51.592Z,45.29
2023-05-01T15:13:51.613Z,43.73
2023-05-01T15:14:51.570Z,42.89
2023-05-01T15:15:51.586Z,42.94
2023-05-01T15:16:51.635Z,42.67
2023-05-01T15:17:51.562Z,44.53
2023-05-01T15:18:51.511Z,44.92
2023-05-01T15:19:51.504Z,45.40
2023-05-01T15:20:51.485Z,44.23
2023-05-01T15:21:51.477Z,44.76
2023-05-01T15:22:51.476Z,44.67
2023-05-01T15:23:51.443Z,46.92
2023-05-01T15:24:51.443Z,46.25
2023-05-01T15:25:51.417Z,46.17
2023-05-01T15:26:51.423Z,47.89
2023-05-01T15:27:51.399Z,48.92
2023-05-01T15:28:51.406Z,48.14
2023-05-01T15:29:51.359Z,50.14
2023-05-01T15:30:51.371Z,50.67
2023-05-01T15:32:01.247Z,49.37
2023-05-01T15:32:52.588Z,49.76
2023-05-01T15:33:51.318Z,50.37
2023-05-01T15:34:51.305Z,49.58
2023-05-01T15:35:51.303Z,49.69
2023-05-01T15:36:51.297Z,49.99
2023-05-01T15:37:51.274Z,49.89
2023-05-01T15:38:51.255Z,49.99
2023-05-01T15:39:51.247Z,50.69
2023-05-01T15:40:51.248Z,50.01
2023-05-01T15:41:51.378Z,49.01
2023-05-01T15:42:51.209Z,50.31
2023-05-01T15:43:51.189Z,50.24
2023-05-01T15:44:51.184Z,50.84
2023-05-01T15:45:51.335Z,50.44
2023-05-01T15:46:51.285Z,50.36
2023-05-01T15:47:51.232Z,51.06
2023-05-01T15:48:51.132Z,51.69
2023-05-01T15:49:51.115Z,51.69
2023-05-01T15:50:51.109Z,51.09
2023-05-01T15:51:51.097Z,50.79
2023-05-01T15:52:51.105Z,51.09
2023-05-01T15:53:51.056Z,51.19
2023-05-01T15:54:51.056Z,50.29
2023-05-01T15:55:51.035Z,50.79
2023-05-01T15:56:51.034Z,50.71
2023-05-01T15:57:51.010Z,50.91
2023-05-01T15:58:50.998Z,51.21
2023-05-01T15:59:50.975Z,51.31
2023-05-01T16:00:51.008Z,51.31
2023-05-01T16:01:51.084Z,51.99
2023-05-01T16:02:51.036Z,51.79
2023-05-01T16:03:51.006Z,52.09
2023-05-01T16:04:50.911Z,51.29
2023-05-01T16:05:50.907Z,51.39
2023-05-01T16:06:50.935Z,52.19
2023-05-01T16:07:50.884Z,51.81
2023-05-01T16:08:50.867Z,52.72
2023-05-01T16:09:50.841Z,53.14
2023-05-01T16:10:50.831Z,53.85
2023-05-01T16:11:50.826Z,54.45
2023-05-01T16:12:50.871Z,55.46
2023-05-01T16:13:50.795Z,55.55
2023-05-01T16:14:50.789Z,55.38
2023-05-01T16:15:50.782Z,55.71
2023-05-01T16:16:50.814Z,55.81
2023-05-01T16:17:50.799Z,56.11
2023-05-01T16:18:50.731Z,56.34
2023-05-01T16:19:50.722Z,54.63
2023-05-01T16:20:50.714Z,55.16
2023-05-01T16:21:50.686Z,56.40
2023-05-01T16:22:50.699Z,57.83
2023-05-01T16:23:50.661Z,58.97
2023-05-01T16:24:50.653Z,59.90
2023-05-01T16:25:50.639Z,60.71
2023-05-01T16:26:50.626Z,61.04
2023-05-01T16:27:50.640Z,61.55
2023-05-01T16:28:50.619Z,61.85
2023-05-01T16:29:50.582Z,62.79
2023-05-01T16:30:50.585Z,63.02
2023-05-01T16:31:50.632Z,63.42
2023-05-01T16:32:50.615Z,62.85
2023-05-01T16:33:50.538Z,64.06
2023-05-01T16:34:50.525Z,64.70
2023-05-01T16:35:50.523Z,64.19
2023-05-01T16:36:50.485Z,63.18
2023-05-01T16:37:50.538Z,63.08
2023-05-01T16:38:50.488Z,63.48
2023-05-01T16:39:50.458Z,63.58
2023-05-01T16:40:50.436Z,63.78
2023-05-01T16:41:50.433Z,64.29
2023-05-01T16:42:50.428Z,65.13
2023-05-01T16:43:50.400Z,65.94
2023-05-01T16:44:50.382Z,66.75
2023-05-01T16:45:50.428Z,67.49
2023-05-01T16:46:50.428Z,68.33
2023-05-01T16:47:50.420Z,69.74
2023-05-01T16:48:50.331Z,69.24
2023-05-01T16:49:50.325Z,68.73
2023-05-01T16:50:50.306Z,69.37
2023-05-01T16:51:50.299Z,69.07
2023-05-01T16:52:50.295Z,69.57
2023-05-01T16:53:50.277Z,69.88
2023-05-01T16:54:50.265Z,69.68
2023-05-01T16:55:50.258Z,69.37
2023-05-01T16:56:50.234Z,69.27
2023-05-01T16:57:50.226Z,70.15
2023-05-01T16:58:50.203Z,71.50
2023-05-01T16:59:50.194Z,73.12
2023-05-01T17:00:50.179Z,74.37
2023-05-01T17:01:50.230Z,77.25
2023-05-01T17:02:50.220Z,78.09
2023-05-01T17:03:50.223Z,80.16
2023-05-01T17:04:50.252Z,80.71
2023-05-01T17:05:50.124Z,81.45
2023-05-01T17:06:50.326Z,82.98
2023-05-01T17:07:50.112Z,84.74
2023-05-01T17:08:50.105Z,87.02
2023-05-01T17:09:50.058Z,87.37
2023-05-01T17:10:50.061Z,89.00
2023-05-01T17:11:50.035Z,90.92
2023-05-01T17:12:50.034Z,91.58
2023-05-01T17:13:50.024Z,90.97
2023-05-01T17:14:50.004Z,91.17
2023-05-01T17:15:50.064Z,90.86
2023-05-01T17:16:50.512Z,91.33
2023-05-01T17:17:50.020Z,90.77
2023-05-01T17:18:49.936Z,91.38
2023-05-01T17:19:49.944Z,92.70
2023-05-01T17:20:49.909Z,93.62
2023-05-01T17:21:49.915Z,94.07
2023-05-01T17:22:49.892Z,94.98
2023-05-01T17:23:49.942Z,95.59
2023-05-01T17:24:49.862Z,95.90
2023-05-01T17:25:49.850Z,96.15
2023-05-01T17:26:49.836Z,95.53
2023-05-01T17:27:49.830Z,96.15
2023-05-01T17:28:49.827Z,96.76
2023-05-01T17:29:49.798Z,97.27
2023-05-01T17:30:49.796Z,97.37
2023-05-01T17:31:49.836Z,97.27
2023-05-01T17:32:50.005Z,96.66
2023-05-01T17:33:49.827Z,96.04
2023-05-01T17:34:49.732Z,96.04
2023-05-01T17:35:49.744Z,95.69
2023-05-01T17:36:49.721Z,95.49
2023-05-01T17:37:49.723Z,95.79
2023-05-01T17:38:49.684Z,96.30
2023-05-01T17:39:49.675Z,96.81
2023-05-01T17:40:49.657Z,97.02
2023-05-01T17:41:49.657Z,97.83
2023-05-01T17:42:49.654Z,97.93
2023-05-01T17:43:49.619Z,98.03
2023-05-01T17:44:49.599Z,98.18
2023-05-01T17:45:49.635Z,98.28
2023-05-01T17:46:49.577Z,98.59
2023-05-01T17:47:49.618Z,99.15
2023-05-01T17:48:49.558Z,99.15
2023-05-01T17:49:49.544Z,98.74
2023-05-01T17:50:49.518Z,98.84
2023-05-01T17:51:49.519Z,98.54
2023-05-01T17:52:49.507Z,98.33
2023-05-01T17:53:49.529Z,98.08
2023-05-01T17:54:49.476Z,97.78
2023-05-01T17:55:49.472Z,97.98
2023-05-01T17:56:49.480Z,97.98
2023-05-01T17:57:49.448Z,98.08
2023-05-01T17:58:49.446Z,97.57
2023-05-01T17:59:49.446Z,97.47
2023-05-01T18:00:49.435Z,97.57
2023-05-01T18:01:49.387Z,97.37
2023-05-01T18:02:49.430Z,97.16
2023-05-01T18:03:49.987Z,97.67
2023-05-01T18:04:49.344Z,97.67
2023-05-01T18:05:49.336Z,97.16
2023-05-01T18:06:49.368Z,97.16
2023-05-01T18:07:49.329Z,97.12
2023-05-01T18:08:49.299Z,96.81
2023-05-01T18:09:49.287Z,96.51
2023-05-01T18:10:49.275Z,97.53
2023-05-01T18:11:49.259Z,98.03
2023-05-01T18:12:49.263Z,98.34
2023-05-01T18:13:49.239Z,98.75
2023-05-01T18:14:49.223Z,99.26
2023-05-01T18:15:51.775Z,99.26
2023-05-01T18:16:49.235Z,99.36
2023-05-01T18:17:49.280Z,99.52
2023-05-01T18:18:49.176Z,99.31
2023-05-01T18:19:49.146Z,98.91
2023-05-01T18:20:49.168Z,98.55
2023-05-01T18:21:49.147Z,98.25
2023-05-01T18:22:49.126Z,97.23
2023-05-01T18:23:49.095Z,96.62
2023-05-01T18:24:49.090Z,96.62
2023-05-01T18:25:49.088Z,97.03
2023-05-01T18:26:49.068Z,97.44
2023-05-01T18:27:49.072Z,97.23
2023-05-01T18:28:49.032Z,97.44
2023-05-01T18:29:49.044Z,98.05
2023-05-01T18:30:49.026Z,98.19
2023-05-01T18:31:49.036Z,97.58
2023-05-01T18:32:49.308Z,97.28
2023-05-01T18:33:49.011Z,97.38
2023-05-01T18:34:48.966Z,97.17
2023-05-01T18:35:48.950Z,97.02
2023-05-01T18:36:48.937Z,97.12
2023-05-01T18:37:48.934Z,97.28
2023-05-01T18:38:48.914Z,97.32
2023-05-01T18:39:48.909Z,97.22
2023-05-01T18:40:48.884Z,97.53
2023-05-01T18:41:48.868Z,97.63
2023-05-01T18:42:48.874Z,97.42
2023-05-01T18:43:49.810Z,97.63
2023-05-01T18:44:48.828Z,97.93
2023-05-01T18:45:48.842Z,97.83
2023-05-01T18:46:48.908Z,97.83
2023-05-01T18:47:48.883Z,97.83
2023-05-01T18:48:48.780Z,97.83
2023-05-01T18:49:48.761Z,97.83
2023-05-01T18:51:00.878Z,98.03
2023-05-01T18:51:49.745Z,98.44
2023-05-01T18:52:48.748Z,98.90
2023-05-01T18:53:48.721Z,99.10
2023-05-01T18:54:48.708Z,99.00
2023-05-01T18:55:48.694Z,98.69
2023-05-01T18:56:48.689Z,98.39
2023-05-01T18:57:48.663Z,98.49
2023-05-01T18:58:48.656Z,98.28
2023-05-01T18:59:48.642Z,98.08
2023-05-01T19:00:48.629Z,97.78
2023-05-01T19:01:48.669Z,97.78
2023-05-01T19:02:48.657Z,97.67
2023-05-01T19:03:48.607Z,97.88
2023-05-01T19:04:57.326Z,98.39
2023-05-01T19:05:49.584Z,98.84
2023-05-01T19:06:48.656Z,99.35
2023-05-01T19:07:48.536Z,99.66
2023-05-01T19:08:48.515Z,99.99
2023-05-01T19:09:48.498Z,99.99
2023-05-01T19:10:48.493Z,99.99
2023-05-01T19:11:48.490Z,99.99
2023-05-01T19:12:48.485Z,99.99
2023-05-01T19:13:48.452Z,99.99
2023-05-01T19:14:48.440Z,99.99
2023-05-01T19:15:48.462Z,99.99
2023-05-01T19:16:48.448Z,99.99
2023-05-01T19:17:48.469Z,99.99
2023-05-01T19:18:48.712Z,99.99
2023-05-01T19:19:48.389Z,99.99
2023-05-01T19:20:48.364Z,99.99
2023-05-01T19:21:48.513Z,99.99
2023-05-01T19:22:48.336Z,99.99
2023-05-01T19:23:48.319Z,99.99
2023-05-01T19:24:48.307Z,99.99
2023-05-01T19:25:48.296Z,99.99
2023-05-01T19:26:48.289Z,99.99
2023-05-01T19:27:48.276Z,99.99
2023-05-01T19:28:48.263Z,99.99
2023-05-01T19:29:48.259Z,99.99
2023-05-01T19:30:48.229Z,99.99
2023-05-01T19:31:48.349Z,99.99
2023-05-01T19:32:48.246Z,99.99
2023-05-01T19:33:48.187Z,99.91
2023-05-01T19:34:48.191Z,99.96
2023-05-01T19:35:48.165Z,99.96
2023-05-01T19:36:48.159Z,99.81
2023-05-01T19:37:50.116Z,99.76
2023-05-01T19:38:48.124Z,99.51
2023-05-01T19:39:48.117Z,99.51
2023-05-01T19:40:48.100Z,99.30
2023-05-01T19:41:48.095Z,99.10
2023-05-01T19:42:48.079Z,99.10
2023-05-01T19:43:48.065Z,99.10
2023-05-01T19:44:48.046Z,99.00
2023-05-01T19:45:48.108Z,99.20
2023-05-01T19:46:48.049Z,99.20
2023-05-01T19:47:48.105Z,99.30
2023-05-01T19:48:47.998Z,99.30
2023-05-01T19:49:47.980Z,99.41
2023-05-01T19:50:47.969Z,99.61
2023-05-01T19:51:47.968Z,99.71
2023-05-01T19:52:47.945Z,99.71
2023-05-01T19:53:47.932Z,99.61
2023-05-01T19:54:47.914Z,99.66
2023-05-01T19:55:48.289Z,99.76
2023-05-01T19:56:47.900Z,99.86
2023-05-01T19:57:47.871Z,99.81
2023-05-01T19:58:47.869Z,99.61
2023-05-01T19:59:47.844Z,99.45
2023-05-01T20:00:47.877Z,99.41
2023-05-01T20:01:47.918Z,99.55
2023-05-01T20:02:47.963Z,99.55
2023-05-01T20:03:47.876Z,99.76
2023-05-01T20:04:47.818Z,99.61
2023-05-01T20:05:47.789Z,99.71
2023-05-01T20:06:47.833Z,99.76
2023-05-01T20:07:47.748Z,99.86
2023-05-01T20:08:47.735Z,99.96
2023-05-01T20:09:47.718Z,99.99
2023-05-01T20:10:47.724Z,99.99
2023-05-01T20:11:47.693Z,99.99
2023-05-01T20:12:47.694Z,99.99
2023-05-01T20:13:47.690Z,99.99
2023-05-01T20:14:47.655Z,99.99
2023-05-01T20:15:47.672Z,99.99
2023-05-01T20:16:47.744Z,99.99
2023-05-01T20:17:47.654Z,99.99
2023-05-01T20:18:47.658Z,99.99
2023-05-01T20:19:47.616Z,99.99
2023-05-01T20:20:47.628Z,99.99
2023-05-01T20:21:47.575Z,99.99
2023-05-01T20:22:47.603Z,99.99
2023-05-01T20:23:47.587Z,99.99
2023-05-01T20:24:47.537Z,99.99
2023-05-01T20:25:47.593Z,99.99
2023-05-01T20:26:47.509Z,99.99
2023-05-01T20:27:47.506Z,99.99
2023-05-01T20:28:47.496Z,99.99
2023-05-01T20:29:47.477Z,99.99
2023-05-01T20:30:47.516Z,99.99
2023-05-01T20:31:47.439Z,99.99
2023-05-01T20:32:47.447Z,99.99
2023-05-01T20:33:47.417Z,99.99
2023-05-01T20:34:47.402Z,99.99
2023-05-01T20:35:47.407Z,99.99
2023-05-01T20:36:47.378Z,99.99
2023-05-01T20:37:47.362Z,99.99
2023-05-01T20:38:47.353Z,99.99
2023-05-01T20:39:47.343Z,99.99
2023-05-01T20:40:47.344Z,99.99
2023-05-01T20:41:47.306Z,99.99
2023-05-01T20:42:47.297Z,99.99
2023-05-01T20:43:47.277Z,99.99
2023-05-01T20:44:47.274Z,99.99
2023-05-01T20:45:47.284Z,99.99
2023-05-01T20:46:47.441Z,99.99
2023-05-01T20:47:47.296Z,99.99
2023-05-01T20:48:47.221Z,99.99
2023-05-01T20:49:47.208Z,99.99
2023-05-01T20:50:47.222Z,99.99
2023-05-01T20:51:47.190Z,99.99
2023-05-01T20:52:47.197Z,99.99
2023-05-01T20:53:47.176Z,99.99
2023-05-01T20:54:47.136Z,99.99
2023-05-01T20:55:47.149Z,99.99
2023-05-01T20:56:47.114Z,99.99
2023-05-01T20:57:47.103Z,99.99
2023-05-01T20:58:47.076Z,99.99
2023-05-01T20:59:47.078Z,99.99
